Time;durP1;ratioP1;P1;durP2;ratioP2;P2;SDS_P1;SDS_P2;PMS_P1;PMS_P2;Temp;Humidity;BMP_temperature;BMP_pressure;BME280_temperature;BME280_humidity;BME280_pressure;Samples;Min_cycle;Max_cycle;Signal;HPM_P1;HPM_P2
2022/05/26 00:01:59;;;;;;;18.42;8.65;;;19.60;99.90;;;;;;5041141;28;20025;-81
2022/05/26 00:04:26;;;;;;;12.15;7.43;;;19.60;99.90;;;;;;5036243;28;20048;-82
2022/05/26 00:06:52;;;;;;;18.50;7.30;;;19.50;99.90;;;;;;5024832;28;20490;-82
2022/05/26 00:09:18;;;;;;;17.02;7.10;;;19.40;99.90;;;;;;5047386;28;20021;-82
2022/05/26 00:11:47;;;;;;;18.50;7.30;;;19.40;99.90;;;;;;5024314;28;20123;-81
2022/05/26 00:14:13;;;;;;;16.23;7.72;;;19.40;99.90;;;;;;5020436;28;20561;-82
2022/05/26 00:16:45;;;;;;;16.17;6.75;;;19.40;99.90;;;;;;5019560;28;20039;-82
2022/05/26 00:19:15;;;;;;;16.87;7.33;;;19.40;99.90;;;;;;5036768;28;20021;-82
2022/05/26 00:21:42;;;;;;;17.48;7.60;;;19.40;99.90;;;;;;5039448;28;20026;-82
2022/05/26 00:24:09;;;;;;;14.02;7.57;;;19.40;99.90;;;;;;5039330;28;20021;-84
2022/05/26 00:26:35;;;;;;;20.50;7.43;;;19.50;99.90;;;;;;5040045;28;20132;-84
2022/05/26 00:29:00;;;;;;;14.95;6.82;;;19.50;99.90;;;;;;5045905;28;20186;-85
2022/05/26 00:31:26;;;;;;;16.42;7.90;;;19.40;99.90;;;;;;5043906;28;20032;-84
2022/05/26 00:33:52;;;;;;;20.20;6.93;;;19.40;99.90;;;;;;5043415;28;20021;-86
2022/05/26 00:36:37;;;;;;;15.43;7.78;;;19.40;99.90;;;;;;5021272;28;20091;-82
2022/05/26 00:39:08;;;;;;;17.95;7.90;;;19.40;99.90;;;;;;5038658;28;20026;-83
2022/05/26 00:41:38;;;;;;;19.08;8.73;;;19.30;99.90;;;;;;5039930;28;20392;-83
2022/05/26 00:44:07;;;;;;;19.45;8.07;;;19.30;99.90;;;;;;5042526;28;20021;-83
2022/05/26 00:46:42;;;;;;;21.98;8.25;;;19.30;99.90;;;;;;5039226;28;20915;-83
2022/05/26 00:49:16;;;;;;;16.00;7.82;;;19.20;99.90;;;;;;5045603;28;20547;-83
2022/05/26 00:51:42;;;;;;;14.90;8.45;;;19.30;99.90;;;;;;5041470;28;20050;-83
2022/05/26 00:54:17;;;;;;;18.17;8.27;;;19.20;99.90;;;;;;5042703;28;20054;-83
2022/05/26 00:56:47;;;;;;;18.02;8.50;;;19.20;99.90;;;;;;5025181;28;20476;-83
2022/05/26 00:59:37;;;;;;;16.52;8.20;;;19.20;99.90;;;;;;5043966;28;20024;-84
2022/05/26 01:02:04;;;;;;;13.13;7.43;;;19.20;99.90;;;;;;5023768;28;20501;-83
2022/05/26 01:04:41;;;;;;;19.92;7.82;;;19.10;99.90;;;;;;5018848;28;20032;-84
2022/05/26 01:07:22;;;;;;;16.33;7.53;;;19.10;99.90;;;;;;5021351;28;20485;-84
2022/05/26 01:09:48;;;;;;;16.15;7.68;;;19.00;99.90;;;;;;5025695;28;20025;-84
2022/05/26 01:12:13;;;;;;;14.38;7.55;;;18.90;99.90;;;;;;5039120;28;20108;-86
2022/05/26 01:14:45;;;;;;;12.80;7.00;;;18.80;99.90;;;;;;5023933;28;20464;-84
2022/05/26 01:17:23;;;;;;;15.02;7.78;;;18.80;99.90;;;;;;5024518;28;20040;-84
2022/05/26 01:19:49;;;;;;;24.45;7.38;;;18.70;99.90;;;;;;5046130;28;20082;-86
2022/05/26 01:22:36;;;;;;;13.95;6.88;;;18.70;99.90;;;;;;5023254;28;20025;-86
2022/05/26 01:25:06;;;;;;;13.30;6.60;;;18.70;99.90;;;;;;5038434;28;20496;-85
2022/05/26 01:27:37;;;;;;;11.88;6.45;;;18.70;99.90;;;;;;5020666;28;20025;-83
2022/05/26 01:30:48;;;;;;;13.98;7.00;;;18.70;99.90;;;;;;5044407;28;20032;-85
2022/05/26 01:33:13;;;;;;;19.05;7.28;;;18.60;99.90;;;;;;5038647;28;20400;-86
2022/05/26 01:36:00;;;;;;;23.92;6.82;;;18.60;99.90;;;;;;5044011;28;20029;-84
2022/05/26 01:38:32;;;;;;;15.02;7.35;;;18.70;99.90;;;;;;5039865;28;20052;-85
2022/05/26 01:41:28;;;;;;;14.82;6.40;;;18.90;99.90;;;;;;5036627;28;20029;-85
2022/05/26 01:44:15;;;;;;;14.48;6.30;;;19.00;99.90;;;;;;5040714;28;20036;-85
2022/05/26 01:46:45;;;;;;;12.05;6.38;;;19.10;99.90;;;;;;5038972;28;20033;-85
2022/05/26 01:49:14;;;;;;;15.85;6.55;;;19.20;99.90;;;;;;5036318;28;20028;-85
2022/05/26 01:51:46;;;;;;;15.25;6.65;;;19.20;99.90;;;;;;5040387;28;20566;-86
2022/05/26 01:54:14;;;;;;;;;;;19.10;99.90;;;;;;5034912;28;20076;-86
2022/05/26 01:56:55;;;;;;;18.50;6.82;;;19.10;99.90;;;;;;5041654;28;19908;-84
2022/05/26 01:59:32;;;;;;;17.48;7.30;;;19.10;99.90;;;;;;5043710;28;20111;-85
2022/05/26 02:02:02;;;;;;;14.77;6.82;;;19.10;99.90;;;;;;5036382;28;20045;-86
2022/05/26 02:04:37;;;;;;;15.20;6.93;;;19.10;99.90;;;;;;5032057;28;20099;-86
2022/05/26 02:07:37;;;;;;;14.20;6.13;;;19.10;99.90;;;;;;5017126;28;20060;-85
2022/05/26 02:10:10;;;;;;;15.10;6.13;;;19.10;99.90;;;;;;5026215;28;20517;-85
2022/05/26 02:12:49;;;;;;;15.15;5.45;;;19.10;99.90;;;;;;5038411;28;20586;-86
2022/05/26 02:15:25;;;;;;;12.73;5.15;;;19.10;99.90;;;;;;5044181;28;20171;-85
2022/05/26 02:17:57;;;;;;;10.23;5.15;;;19.20;99.90;;;;;;5040012;28;20017;-85
2022/05/26 02:20:34;;;;;;;14.20;5.53;;;19.20;99.90;;;;;;5034878;28;20018;-84
2022/05/26 02:23:31;;;;;;;15.55;4.97;;;19.30;99.90;;;;;;5036775;28;20071;-86
2022/05/26 02:26:00;;;;;;;14.80;4.97;;;19.30;99.90;;;;;;4984833;28;20155;-85
2022/05/26 02:28:26;;;;;;;11.73;5.07;;;19.20;99.90;;;;;;5035333;28;20104;-83
2022/05/26 02:30:55;;;;;;;12.15;4.75;;;19.20;99.90;;;;;;5032968;28;20556;-83
2022/05/26 02:33:24;;;;;;;7.55;4.65;;;19.20;99.90;;;;;;5038169;28;20028;-86
2022/05/26 02:35:52;;;;;;;17.02;4.60;;;19.20;99.90;;;;;;5044626;28;20479;-86
2022/05/26 02:38:22;;;;;;;9.68;4.60;;;19.30;99.90;;;;;;5038817;28;20024;-87
2022/05/26 02:40:49;;;;;;;15.68;4.60;;;19.30;99.90;;;;;;5019460;28;20025;-85
2022/05/26 02:43:40;;;;;;;7.38;3.78;;;19.40;99.90;;;;;;5040543;28;20021;-86
2022/05/26 02:46:18;;;;;;;8.90;3.97;;;19.40;99.90;;;;;;5028542;28;20137;-86
2022/05/26 02:49:11;;;;;;;13.18;4.30;;;19.50;99.90;;;;;;5041882;28;20028;-86
2022/05/26 02:51:47;;;;;;;7.80;4.38;;;19.50;99.90;;;;;;5040331;28;20053;-87
2022/05/26 02:54:47;;;;;;;10.95;4.28;;;19.50;99.90;;;;;;5024241;28;20392;-84
2022/05/26 02:57:24;;;;;;;6.65;3.92;;;19.40;99.90;;;;;;5038565;28;20037;-87
2022/05/26 03:00:04;;;;;;;8.23;3.90;;;19.40;99.90;;;;;;5045899;28;20132;-87
2022/05/26 03:02:57;;;;;;;7.57;3.58;;;19.40;99.90;;;;;;5036090;28;20027;-87
2022/05/26 03:05:41;;;;;;;13.32;3.80;;;19.40;99.90;;;;;;5029774;28;20037;-87
2022/05/26 03:08:11;;;;;;;10.57;4.00;;;19.40;99.90;;;;;;5038678;28;20491;-87
2022/05/26 03:10:37;;;;;;;15.13;4.18;;;19.30;99.90;;;;;;5043284;28;20025;-86
2022/05/26 03:13:04;;;;;;;5.38;3.28;;;19.40;99.90;;;;;;5036544;28;20028;-87
2022/05/26 03:15:32;;;;;;;8.68;3.78;;;19.40;99.90;;;;;;5019384;28;20029;-88
2022/05/26 03:18:01;;;;;;;9.77;3.50;;;19.40;99.90;;;;;;5038805;28;20080;-87
2022/05/26 03:20:27;;;;;;;9.80;3.38;;;19.50;99.90;;;;;;5023132;28;20104;-86
2022/05/26 03:22:55;;;;;;;11.77;3.70;;;19.50;99.90;;;;;;5021570;28;20028;-84
2022/05/26 03:25:21;;;;;;;12.52;3.92;;;19.50;99.90;;;;;;5018724;28;20033;-86
2022/05/26 03:27:47;;;;;;;9.13;3.60;;;19.40;99.90;;;;;;5021182;28;20568;-86
2022/05/26 03:30:15;;;;;;;7.60;3.65;;;19.50;99.90;;;;;;5042070;28;20041;-86
2022/05/26 03:32:41;;;;;;;13.60;3.40;;;19.40;99.90;;;;;;5039371;28;20024;-85
2022/05/26 03:40:56;;;;;;;9.65;3.33;;;19.40;99.90;;;;;;5035626;28;20487;-86
2022/05/26 03:43:28;;;;;;;9.77;3.33;;;19.40;99.90;;;;;;5037603;28;20376;-86
2022/05/26 03:45:54;;;;;;;13.57;3.33;;;19.40;99.90;;;;;;5027117;28;20030;-86
2022/05/26 03:48:22;;;;;;;6.28;2.97;;;19.30;99.90;;;;;;5036849;28;20384;-85
2022/05/26 03:50:51;;;;;;;11.60;3.28;;;19.40;99.90;;;;;;5042915;28;20523;-85
2022/05/26 03:53:20;;;;;;;10.70;3.47;;;19.40;99.90;;;;;;5037262;28;20028;-86
2022/05/26 03:55:47;;;;;;;11.35;3.40;;;19.40;99.90;;;;;;5042621;28;20053;-85
2022/05/26 03:58:13;;;;;;;7.88;3.28;;;19.40;99.90;;;;;;5039691;28;20018;-85
2022/05/26 04:00:39;;;;;;;5.72;3.15;;;19.40;99.90;;;;;;5049485;28;20047;-87
2022/05/26 04:03:04;;;;;;;8.98;2.97;;;19.40;99.90;;;;;;5041749;28;20016;-88
2022/05/26 04:05:30;;;;;;;8.88;3.33;;;19.40;99.90;;;;;;5036515;28;20080;-88
2022/05/26 04:07:57;;;;;;;10.68;3.13;;;19.50;99.90;;;;;;5044374;28;20088;-86
2022/05/26 04:10:22;;;;;;;7.05;3.17;;;19.50;99.90;;;;;;5022220;28;20047;-88
2022/05/26 04:12:48;;;;;;;8.25;2.67;;;19.50;99.90;;;;;;5023027;28;20488;-88
2022/05/26 04:15:15;;;;;;;10.20;2.97;;;19.50;99.90;;;;;;5028949;28;20036;-87
2022/05/26 04:17:41;;;;;;;11.00;3.03;;;19.50;99.90;;;;;;5024453;28;20116;-86
2022/05/26 04:20:16;;;;;;;6.25;2.67;;;19.60;99.90;;;;;;5020262;28;20636;-86
2022/05/26 04:22:42;;;;;;;12.13;2.95;;;19.60;99.90;;;;;;5022141;28;20056;-87
2022/05/26 04:25:08;;;;;;;7.07;2.60;;;19.60;99.90;;;;;;5029072;28;20034;-88
2022/05/26 04:27:34;;;;;;;9.65;3.13;;;19.70;99.90;;;;;;5034430;28;20468;-86
2022/05/26 04:30:04;;;;;;;9.10;2.28;;;19.70;99.90;;;;;;5046718;28;20037;-86
2022/05/26 04:32:30;;;;;;;4.93;2.47;;;19.70;99.90;;;;;;5041815;28;20025;-85
2022/05/26 04:34:56;;;;;;;4.82;2.40;;;19.80;99.90;;;;;;5046782;28;20026;-85
2022/05/26 04:37:25;;;;;;;6.18;2.72;;;19.80;99.90;;;;;;5026358;28;20029;-86
2022/05/26 04:39:51;;;;;;;13.18;3.10;;;19.80;99.90;;;;;;5039722;28;20021;-86
2022/05/26 04:42:18;;;;;;;3.72;2.22;;;19.80;99.90;;;;;;5025020;28;20033;-85
2022/05/26 04:44:44;;;;;;;6.60;2.40;;;19.90;99.90;;;;;;5046338;28;20075;-87
2022/05/26 04:47:12;;;;;;;5.13;2.60;;;19.90;99.90;;;;;;5042064;28;20025;-85
2022/05/26 04:49:38;;;;;;;13.52;2.50;;;20.00;99.90;;;;;;5027196;28;20033;-85
2022/05/26 04:52:13;;;;;;;6.28;2.40;;;20.00;99.90;;;;;;5041089;28;20322;-92
2022/05/26 04:54:39;;;;;;;3.22;1.98;;;20.10;99.90;;;;;;5039186;28;20030;-89
2022/05/26 04:57:06;;;;;;;7.72;2.50;;;20.10;99.90;;;;;;5023466;28;20029;-91
2022/05/26 04:59:33;;;;;;;6.97;2.13;;;20.20;99.90;;;;;;5037680;28;20052;-87
2022/05/26 05:02:00;;;;;;;4.72;2.20;;;20.20;99.90;;;;;;5042729;28;20486;-87
2022/05/26 05:04:26;;;;;;;10.40;2.50;;;20.30;99.90;;;;;;5034967;28;20021;-86
2022/05/26 05:06:53;;;;;;;9.25;2.13;;;20.30;99.90;;;;;;5040383;28;20095;-86
2022/05/26 05:09:18;;;;;;;7.30;2.60;;;20.30;99.90;;;;;;5036067;28;20018;-87
2022/05/26 05:11:44;;;;;;;7.47;2.53;;;20.40;99.90;;;;;;5041917;28;20036;-89
2022/05/26 05:14:11;;;;;;;3.00;1.92;;;20.40;99.90;;;;;;5043551;28;20104;-86
2022/05/26 05:16:42;;;;;;;7.03;2.00;;;20.50;99.90;;;;;;5041762;28;20427;-87
2022/05/26 05:19:16;;;;;;;6.97;1.95;;;20.50;99.90;;;;;;5036556;28;20045;-86
2022/05/26 05:21:50;;;;;;;9.50;2.10;;;20.60;99.90;;;;;;5042860;28;20029;-92
2022/05/26 05:24:34;;;;;;;6.28;2.00;;;20.60;99.90;;;;;;5019900;28;20040;-95
2022/05/26 05:27:18;;;;;;;6.80;1.90;;;20.70;99.90;;;;;;5029948;28;20037;-95
2022/05/26 05:29:46;;;;;;;4.75;2.47;;;20.70;99.90;;;;;;5033286;28;20028;-90
2022/05/26 05:32:26;;;;;;;4.22;1.90;;;20.70;99.90;;;;;;5037790;28;20028;-91
2022/05/26 05:35:02;;;;;;;4.75;1.65;;;20.80;99.90;;;;;;5026275;28;20124;-93
2022/05/26 05:37:31;;;;;;;4.55;1.75;;;20.90;99.90;;;;;;5043549;28;20026;-87
2022/05/26 05:39:56;;;;;;;6.80;1.95;;;21.00;99.90;;;;;;5031544;28;20021;-95
2022/05/26 05:42:23;;;;;;;5.78;2.00;;;21.00;99.90;;;;;;5041309;28;20025;-91
2022/05/26 05:44:49;;;;;;;5.88;1.80;;;21.10;99.90;;;;;;5018927;28;20029;-90
2022/05/26 05:47:15;;;;;;;6.20;1.70;;;21.20;99.90;;;;;;5025189;28;20395;-88
2022/05/26 05:49:40;;;;;;;7.57;1.75;;;21.30;99.90;;;;;;5036880;28;20025;-91
2022/05/26 05:52:12;;;;;;;7.03;2.67;;;21.30;99.90;;;;;;5045509;28;20062;-90
2022/05/26 05:54:38;;;;;;;3.67;1.67;;;21.40;99.90;;;;;;5028046;28;20025;-89
2022/05/26 05:57:05;;;;;;;7.72;1.50;;;21.40;99.90;;;;;;5027809;28;20510;-90
2022/05/26 05:59:31;;;;;;;3.85;1.58;;;21.50;99.90;;;;;;5035013;28;20442;-91
2022/05/26 06:01:56;;;;;;;6.75;1.50;;;21.60;99.90;;;;;;5039188;28;20040;-90
2022/05/26 06:04:22;;;;;;;3.97;1.88;;;21.60;99.90;;;;;;5035779;28;20022;-88
2022/05/26 06:06:48;;;;;;;4.88;2.15;;;21.60;99.90;;;;;;5043371;28;20041;-90
2022/05/26 06:09:15;;;;;;;3.63;1.58;;;21.70;99.90;;;;;;5046593;28;20021;-88
2022/05/26 06:11:42;;;;;;;4.07;1.65;;;21.80;99.90;;;;;;5034992;28;20547;-91
2022/05/26 06:14:07;;;;;;;4.65;2.03;;;21.80;99.90;;;;;;5037963;28;20013;-89
2022/05/26 06:16:33;;;;;;;5.80;1.75;;;21.90;99.90;;;;;;5024598;28;20415;-87
2022/05/26 06:19:00;;;;;;;7.03;1.58;;;21.90;99.90;;;;;;5026389;28;20507;-89
2022/05/26 06:21:26;;;;;;;6.35;1.67;;;22.10;99.90;;;;;;5037863;28;20021;-91
2022/05/26 06:23:55;;;;;;;4.93;1.50;;;22.10;99.90;;;;;;5024547;28;20033;-87
2022/05/26 06:26:21;;;;;;;5.15;1.65;;;22.20;99.90;;;;;;5049102;28;20033;-89
2022/05/26 06:31:30;;;;;;;8.15;1.70;;;22.40;99.90;;;;;;5036324;28;20036;-94
2022/05/26 06:37:28;;;;;;;4.45;1.83;;;22.60;99.90;;;;;;5033932;28;20228;-93
2022/05/26 06:39:26;;;;;;;2.55;1.58;;;22.60;99.90;;;;;;5029894;28;20122;-86
2022/05/26 06:42:07;;;;;;;3.33;1.33;;;22.70;99.90;;;;;;5037202;28;20052;-90
2022/05/26 06:44:38;;;;;;;8.00;1.60;;;22.70;99.90;;;;;;5031591;28;20029;-92
2022/05/26 06:47:10;;;;;;;7.97;1.67;;;22.80;99.90;;;;;;5031847;28;20025;-92
2022/05/26 06:49:38;;;;;;;5.53;1.52;;;22.80;99.90;;;;;;5047463;28;20697;-90
2022/05/26 06:52:08;;;;;;;4.00;1.65;;;22.90;99.90;;;;;;5018864;28;20536;-89
2022/05/26 06:54:37;;;;;;;2.38;1.45;;;23.00;99.90;;;;;;5034025;28;20488;-90
2022/05/26 06:57:05;;;;;;;3.72;1.33;;;23.10;99.90;;;;;;5039698;28;20029;-88
2022/05/26 06:59:33;;;;;;;5.53;1.42;;;23.20;99.90;;;;;;5025181;28;20523;-90
2022/05/26 07:01:59;;;;;;;3.33;1.40;;;23.20;99.90;;;;;;5038710;28;20035;-92
2022/05/26 07:04:25;;;;;;;5.07;1.50;;;23.30;99.90;;;;;;5041753;28;20100;-93
2022/05/26 07:06:53;;;;;;;2.22;1.40;;;23.30;99.90;;;;;;5041595;28;20037;-92
2022/05/26 07:09:20;;;;;;;4.00;1.73;;;23.40;99.90;;;;;;5036279;28;20443;-92
2022/05/26 07:11:49;;;;;;;7.63;1.70;;;23.50;99.90;;;;;;5018066;28;20033;-93
2022/05/26 07:14:15;;;;;;;3.80;1.55;;;23.60;99.90;;;;;;5040672;28;20029;-94
2022/05/26 07:16:42;;;;;;;4.93;1.80;;;23.70;99.90;;;;;;5023348;28;20029;-92
2022/05/26 07:19:08;;;;;;;1.50;1.10;;;23.80;99.90;;;;;;5040547;28;20026;-93
2022/05/26 07:21:34;;;;;;;3.25;1.17;;;23.90;99.90;;;;;;5041402;28;20081;-92
2022/05/26 07:24:00;;;;;;;8.32;1.55;;;24.00;99.90;;;;;;5041388;28;20125;-93
2022/05/26 07:26:28;;;;;;;3.30;1.33;;;24.00;99.90;;;;;;5028636;28;20029;-93
2022/05/26 07:28:55;;;;;;;3.45;1.42;;;24.20;99.90;;;;;;5039435;28;20021;-93
2022/05/26 07:31:21;;;;;;;4.15;1.58;;;24.40;99.90;;;;;;5035554;28;20095;-95
2022/05/26 07:33:49;;;;;;;3.95;1.30;;;24.60;99.90;;;;;;5020429;28;20028;-93
2022/05/26 07:41:46;;;;;;;3.45;1.20;;;25.40;99.90;;;;;;5042449;28;20119;-93
2022/05/26 07:44:16;;;;;;;2.47;1.20;;;25.50;99.90;;;;;;5044462;28;20031;-91
2022/05/26 07:46:42;;;;;;;8.88;1.50;;;25.80;99.90;;;;;;5041687;28;20036;-92
2022/05/26 07:49:09;;;;;;;3.88;1.67;;;25.90;99.90;;;;;;5029616;28;20414;-91
2022/05/26 07:51:35;;;;;;;3.15;1.30;;;26.00;99.90;;;;;;5037639;28;20064;-94
2022/05/26 07:54:00;;;;;;;2.88;1.38;;;26.20;99.90;;;;;;5050086;28;20025;-86
2022/05/26 07:56:33;;;;;;;3.08;1.40;;;26.30;99.90;;;;;;5047591;28;20472;-91
2022/05/26 07:58:59;;;;;;;2.42;1.35;;;26.40;99.90;;;;;;5028470;28;20036;-89
2022/05/26 08:01:25;;;;;;;4.25;1.30;;;26.50;99.90;;;;;;5023326;28;20026;-88
2022/05/26 08:03:53;;;;;;;9.93;1.65;;;26.50;99.90;;;;;;5023998;28;20037;-89
2022/05/26 08:06:20;;;;;;;5.78;1.55;;;26.60;99.90;;;;;;5037108;28;20041;-92
2022/05/26 08:08:45;;;;;;;4.28;1.30;;;26.60;99.90;;;;;;5043897;28;20019;-94
2022/05/26 08:11:11;;;;;;;9.55;1.30;;;26.70;99.90;;;;;;5018372;28;20111;-93
2022/05/26 08:13:37;;;;;;;6.72;1.65;;;26.70;99.90;;;;;;5020912;28;20028;-96
2022/05/26 08:16:05;;;;;;;3.40;1.17;;;26.70;99.90;;;;;;5046135;28;20061;-95
2022/05/26 08:18:31;;;;;;;7.05;1.50;;;26.60;99.90;;;;;;5032694;28;20014;-95
2022/05/26 08:21:06;;;;;;;2.60;1.33;;;26.60;99.90;;;;;;5042885;28;20078;-93
2022/05/26 08:23:32;;;;;;;5.93;1.60;;;26.70;99.90;;;;;;5027381;28;20017;-89
2022/05/26 08:26:00;;;;;;;7.30;1.70;;;26.90;99.90;;;;;;5054726;28;20479;-94
2022/05/26 08:28:29;;;;;;;4.53;1.58;;;27.00;99.90;;;;;;5051763;28;20018;-96
2022/05/26 08:30:55;;;;;;;6.32;1.77;;;27.00;99.90;;;;;;5028991;28;20021;-95
2022/05/26 08:33:21;;;;;;;5.18;1.70;;;26.90;99.90;;;;;;5050323;28;20013;-95
2022/05/26 08:35:47;;;;;;;1.77;1.35;;;27.00;99.90;;;;;;5038859;28;20026;-95
2022/05/26 08:38:13;;;;;;;6.93;1.75;;;27.10;99.90;;;;;;5030297;28;20039;-94
2022/05/26 08:40:48;;;;;;;3.33;1.52;;;27.30;99.90;;;;;;5052782;28;20022;-94
2022/05/26 08:43:20;;;;;;;6.45;1.58;;;27.60;99.90;;;;;;5031404;28;20377;-94
2022/05/26 08:45:49;;;;;;;4.10;1.50;;;28.10;99.90;;;;;;5037866;28;20048;-94
2022/05/26 08:48:38;;;;;;;5.03;1.50;;;28.50;99.90;;;;;;5045295;28;20033;-94
2022/05/26 08:51:05;;;;;;;6.13;1.80;;;29.00;99.90;;;;;;5037354;28;20045;-94
2022/05/26 08:53:37;;;;;;;7.18;1.75;;;29.40;99.90;;;;;;5049504;28;20021;-95
2022/05/26 08:56:03;;;;;;;3.53;1.58;;;29.70;99.90;;;;;;5044746;28;20036;-95
2022/05/26 08:58:39;;;;;;;4.28;1.48;;;29.80;99.90;;;;;;5049115;28;20032;-95
2022/05/26 09:01:09;;;;;;;3.53;1.52;;;30.10;99.90;;;;;;5017465;28;20100;-96
2022/05/26 09:03:35;;;;;;;3.33;1.35;;;30.10;99.90;;;;;;5042834;28;20017;-95
2022/05/26 09:06:10;;;;;;;4.20;1.80;;;30.20;99.90;;;;;;5015919;28;20033;-95
2022/05/26 09:14:26;;;;;;;5.90;2.00;;;30.60;99.90;;;;;;5038874;28;20416;-95
2022/05/26 09:17:12;;;;;;;3.53;1.60;;;30.70;99.90;;;;;;5044715;28;20100;-95
2022/05/26 09:19:43;;;;;;;3.55;1.73;;;30.90;99.90;;;;;;5051926;28;20101;-95
2022/05/26 09:22:29;;;;;;;14.73;1.80;;;31.00;99.90;;;;;;5023955;28;20053;-95
2022/05/26 09:24:56;;;;;;;4.47;1.77;;;31.10;99.90;;;;;;5020865;28;20499;-92
2022/05/26 09:27:36;;;;;;;3.75;1.75;;;31.10;99.90;;;;;;5044498;28;20037;-95
2022/05/26 09:30:20;;;;;;;6.50;1.92;;;30.90;99.90;;;;;;5033340;28;20029;-94
2022/05/26 09:32:47;;;;;;;5.50;1.77;;;30.80;99.90;;;;;;5030752;28;20392;-94
2022/05/26 09:35:15;;;;;;;4.38;2.13;;;30.60;99.90;;;;;;5028367;28;20041;-94
2022/05/26 09:37:52;;;;;;;8.45;3.42;;;30.30;99.90;;;;;;5043867;28;20029;-95
2022/05/26 09:40:28;;;;;;;16.55;4.68;;;29.60;99.90;;;;;;5048508;28;20742;-91
2022/05/26 09:43:04;;;;;;;16.23;3.90;;;28.40;99.90;;;;;;5041639;28;20013;-90
2022/05/26 09:45:42;;;;;;;11.88;4.68;;;27.60;99.90;;;;;;5016153;28;20079;-89
2022/05/26 09:48:26;;;;;;;16.02;4.63;;;27.10;99.90;;;;;;5024354;28;20483;-89
2022/05/26 09:51:04;;;;;;;16.23;4.72;;;27.00;99.90;;;;;;5022757;28;20048;-93
2022/05/26 09:53:38;;;;;;;19.45;4.53;;;27.10;99.90;;;;;;5030526;28;20017;-88
2022/05/26 09:56:05;;;;;;;18.92;4.13;;;26.90;99.90;;;;;;5022673;28;20707;-88
2022/05/26 09:58:34;;;;;;;10.85;4.10;;;26.60;99.90;;;;;;5040729;28;20017;-89
2022/05/26 10:01:05;;;;;;;12.98;3.95;;;26.20;99.90;;;;;;5044057;28;20702;-90
2022/05/26 10:03:49;;;;;;;11.48;3.30;;;26.10;99.90;;;;;;5028527;28;20025;-92
2022/05/26 10:06:38;;;;;;;12.23;3.30;;;26.20;99.90;;;;;;5026231;28;20038;-90
2022/05/26 10:09:34;;;;;;;8.35;2.40;;;26.20;99.90;;;;;;5038236;28;20021;-89
2022/05/26 10:12:34;;;;;;;10.50;3.13;;;26.20;99.90;;;;;;5037608;28;20027;-91
2022/05/26 10:15:24;;;;;;;4.32;2.15;;;26.40;99.90;;;;;;5041613;28;20480;-92
2022/05/26 10:17:51;;;;;;;9.80;2.75;;;26.80;99.90;;;;;;5013084;28;20098;-92
2022/05/26 10:20:25;;;;;;;8.45;3.00;;;26.80;99.90;;;;;;5047190;28;20153;-91
2022/05/26 10:23:02;;;;;;;8.52;3.35;;;26.80;99.90;;;;;;5009872;28;20540;-88
2022/05/26 10:25:43;;;;;;;6.53;3.17;;;27.00;99.90;;;;;;5038452;28;20025;-87
2022/05/26 10:28:43;;;;;;;10.70;3.53;;;26.90;99.90;;;;;;5022862;28;20025;-91
2022/05/26 10:31:47;;;;;;;8.90;3.13;;;27.00;99.90;;;;;;5032602;28;20100;-94
2022/05/26 10:34:31;;;;;;;11.00;3.90;;;26.80;99.90;;;;;;5013357;28;20052;-94
2022/05/26 10:37:37;;;;;;;11.90;3.97;;;26.40;99.90;;;;;;5035775;28;21069;-91
2022/05/26 10:40:33;;;;;;;13.63;3.70;;;26.30;99.90;;;;;;5037050;28;20079;-92
2022/05/26 10:43:05;;;;;;;10.55;3.85;;;26.50;99.90;;;;;;5021739;28;20027;-88
2022/05/26 10:45:41;;;;;;;16.83;3.65;;;26.50;99.90;;;;;;5019489;28;20083;-94
2022/05/26 10:48:35;;;;;;;10.68;3.97;;;26.40;99.90;;;;;;5023742;28;20029;-92
2022/05/26 10:51:20;;;;;;;13.43;3.85;;;26.40;99.90;;;;;;5019773;28;20049;-90
2022/05/26 10:53:54;;;;;;;15.00;3.85;;;26.60;99.90;;;;;;5037061;28;20502;-89
2022/05/26 10:56:42;;;;;;;11.95;4.13;;;26.80;99.90;;;;;;5043519;28;20025;-91
2022/05/26 10:59:41;;;;;;;19.38;3.95;;;26.70;99.90;;;;;;5025078;28;20032;-92
2022/05/26 11:02:30;;;;;;;10.43;4.13;;;26.50;99.90;;;;;;5020183;28;20022;-92
2022/05/26 11:05:13;;;;;;;9.38;3.80;;;26.60;99.90;;;;;;4998600;28;20444;-90
2022/05/26 11:07:55;;;;;;;20.60;3.65;;;26.70;99.90;;;;;;5024276;28;20039;-89
2022/05/26 11:11:13;;;;;;;19.92;3.83;;;27.00;99.90;;;;;;5019831;28;20032;-88
2022/05/26 11:13:42;;;;;;;12.45;4.43;;;27.10;99.90;;;;;;4963060;28;20588;-91
2022/05/26 11:19:21;;;;;;;10.50;3.55;;;27.30;99.90;;;;;;5028237;28;20048;-88
2022/05/26 11:21:47;;;;;;;16.42;4.55;;;27.20;99.90;;;;;;5050688;28;20471;-92
2022/05/26 11:24:13;;;;;;;10.18;4.25;;;27.40;99.90;;;;;;5051472;28;20053;-89
2022/05/26 11:27:05;;;;;;;17.27;3.92;;;27.30;99.90;;;;;;5042246;28;20111;-90
2022/05/26 11:29:35;;;;;;;18.50;3.58;;;27.40;99.90;;;;;;5032827;28;20033;-89
2022/05/26 11:37:40;;;;;;;13.77;3.58;;;28.00;99.90;;;;;;5046882;28;20107;-91
2022/05/26 11:40:26;;;;;;;14.40;3.85;;;28.50;99.90;;;;;;5027800;28;20025;-88
2022/05/26 11:42:55;;;;;;;16.92;3.83;;;29.10;99.90;;;;;;5037292;28;20103;-89
2022/05/26 11:45:28;;;;;;;13.30;3.63;;;28.90;99.90;;;;;;5037892;28;20022;-88
2022/05/26 11:47:59;;;;;;;16.52;4.43;;;28.20;99.90;;;;;;5019746;28;20556;-89
2022/05/26 11:50:43;;;;;;;11.52;3.35;;;28.10;99.90;;;;;;5045262;28;20041;-89
2022/05/26 11:53:34;;;;;;;14.00;3.75;;;28.00;99.90;;;;;;5028606;28;20397;-89
2022/05/26 11:56:19;;;;;;;20.13;4.10;;;27.90;99.90;;;;;;5045337;28;20160;-87
2022/05/26 11:58:47;;;;;;;10.70;3.80;;;27.70;99.90;;;;;;5044642;28;20047;-93
2022/05/26 12:01:22;;;;;;;12.65;3.95;;;27.30;99.90;;;;;;5024809;28;20029;-88
2022/05/26 12:03:54;;;;;;;13.35;3.95;;;27.20;99.90;;;;;;5028193;28;20098;-88
2022/05/26 12:06:38;;;;;;;12.20;4.32;;;27.00;99.90;;;;;;5044717;28;20072;-87
2022/05/26 12:09:05;;;;;;;10.50;3.88;;;27.00;99.90;;;;;;5027054;28;20059;-88
2022/05/26 12:11:59;;;;;;;19.23;4.65;;;27.10;99.90;;;;;;5046821;28;20472;-92
2022/05/26 12:14:43;;;;;;;13.52;4.13;;;27.10;99.90;;;;;;5030835;28;20016;-88
2022/05/26 12:17:28;;;;;;;15.48;4.40;;;26.70;99.90;;;;;;5041192;28;20021;-89
2022/05/26 12:19:54;;;;;;;14.15;3.85;;;26.60;99.90;;;;;;5040338;28;20021;-89
2022/05/26 12:22:29;;;;;;;10.48;3.45;;;26.60;99.90;;;;;;5047352;28;20021;-90
2022/05/26 12:25:30;;;;;;;19.17;3.88;;;26.70;99.90;;;;;;5044800;28;20558;-87
2022/05/26 12:28:25;;;;;;;18.05;4.00;;;26.80;99.90;;;;;;5007654;28;20037;-88
2022/05/26 12:30:52;;;;;;;16.65;4.15;;;27.00;99.90;;;;;;5044511;28;20025;-87
2022/05/26 12:33:20;;;;;;;17.45;3.95;;;27.10;99.90;;;;;;5027858;28;20585;-89
2022/05/26 12:36:07;;;;;;;14.15;4.28;;;27.30;99.90;;;;;;5026298;28;20029;-89
2022/05/26 12:38:45;;;;;;;11.32;4.25;;;27.40;99.90;;;;;;5040569;28;20175;-89
2022/05/26 12:41:38;;;;;;;12.88;3.83;;;27.30;99.90;;;;;;5024784;28;20017;-88
2022/05/26 12:44:11;;;;;;;14.05;4.00;;;27.10;99.90;;;;;;5039622;28;20026;-88
2022/05/26 12:46:55;;;;;;;14.88;4.40;;;26.80;99.90;;;;;;5040216;28;20033;-88
2022/05/26 12:49:54;;;;;;;13.27;4.20;;;26.90;99.90;;;;;;5044499;28;20100;-89
2022/05/26 12:52:42;;;;;;;12.20;4.15;;;26.90;99.90;;;;;;5033133;28;20083;-90
2022/05/26 12:55:25;;;;;;;16.55;3.90;;;26.80;99.90;;;;;;5006508;28;20029;-89
2022/05/26 12:58:15;;;;;;;18.35;3.95;;;26.90;99.90;;;;;;5036560;28;20075;-88
2022/05/26 13:00:48;;;;;;;19.38;4.82;;;27.00;99.90;;;;;;5039484;28;20025;-88
2022/05/26 13:03:13;;;;;;;17.45;4.30;;;27.30;99.90;;;;;;5042910;28;20020;-89
2022/05/26 13:05:47;;;;;;;24.73;4.53;;;27.50;99.90;;;;;;5027737;28;20033;-89
2022/05/26 13:08:18;;;;;;;60.90;7.80;;;27.30;99.90;;;;;;5044849;28;20063;-89
2022/05/26 13:10:45;;;;;;;17.73;5.13;;;27.30;99.90;;;;;;5045715;28;20469;-89
2022/05/26 13:13:28;;;;;;;26.83;4.43;;;27.20;99.90;;;;;;5042267;28;20103;-88
2022/05/26 13:16:21;;;;;;;15.40;4.57;;;27.10;99.90;;;;;;5024013;28;20366;-90
2022/05/26 13:18:47;;;;;;;18.38;4.68;;;27.00;99.90;;;;;;5039687;28;20021;-88
2022/05/26 13:21:22;;;;;;;19.38;4.15;;;27.00;99.90;;;;;;5040082;28;20646;-89
2022/05/26 13:23:50;;;;;;;19.20;4.63;;;26.90;99.90;;;;;;5040300;28;20021;-87
2022/05/26 13:26:17;;;;;;;19.90;4.70;;;26.50;99.90;;;;;;5040165;28;20499;-88
2022/05/26 13:28:49;;;;;;;23.92;4.93;;;26.30;99.90;;;;;;5026070;28;20391;-89
2022/05/26 13:34:03;;;;;;;31.40;5.28;;;25.90;99.90;;;;;;5043983;28;20438;-88
2022/05/26 13:36:36;;;;;;;35.33;5.30;;;26.00;99.90;;;;;;5024482;28;20403;-90
2022/05/26 13:39:14;;;;;;;16.80;4.45;;;26.00;99.90;;;;;;5045103;28;20021;-88
2022/05/26 13:41:43;;;;;;;17.05;4.50;;;26.00;99.90;;;;;;5039953;28;20499;-90
2022/05/26 13:44:15;;;;;;;13.02;3.92;;;25.90;99.90;;;;;;5047839;28;20383;-90
2022/05/26 13:46:46;;;;;;;13.23;4.20;;;25.90;99.90;;;;;;5042213;28;20041;-94
2022/05/26 13:49:32;;;;;;;12.13;4.05;;;25.90;99.90;;;;;;5040388;28;20053;-92